Time;durP1;ratioP1;P1;durP2;ratioP2;P2;SDS_P1;SDS_P2;PMS_P1;PMS_P2;Temp;Humidity;BMP_temperature;BMP_pressure;BME280_temperature;BME280_humidity;BME280_pressure;Samples;Min_cycle;Max_cycle;Signal;HPM_P1;HPM_P2
2021/10/22 00:02:17;;;;;;;3.03;1.10;;;21.60;54.30;;;;;;5211604;28;20420;-74
2021/10/22 00:04:49;;;;;;;11.23;1.48;;;21.60;54.80;;;;;;5214365;28;20535;-75
2021/10/22 00:07:22;;;;;;;4.15;1.00;;;21.60;55.20;;;;;;5220504;28;20043;-77
2021/10/22 00:09:55;;;;;;;3.28;1.27;;;21.60;55.10;;;;;;5221257;28;20059;-75
2021/10/22 00:12:27;;;;;;;;;;;21.60;55.20;;;;;;5200337;28;20044;-75
2021/10/22 00:15:00;;;;;;;2.10;1.02;;;21.50;55.20;;;;;;5212797;28;19928;-77
2021/10/22 00:17:32;;;;;;;1.70;0.60;;;21.60;55.00;;;;;;5215334;28;22342;-76
2021/10/22 00:20:09;;;;;;;3.35;0.90;;;21.60;54.90;;;;;;5212373;28;20289;-75
2021/10/22 00:22:42;;;;;;;2.40;0.70;;;21.60;54.80;;;;;;5209331;28;20037;-75
2021/10/22 00:25:15;;;;;;;2.35;0.90;;;21.60;55.10;;;;;;5205022;28;20052;-75
2021/10/22 00:27:47;;;;;;;3.15;0.70;;;21.50;55.50;;;;;;5220447;28;20385;-77
2021/10/22 00:30:20;;;;;;;3.30;1.00;;;21.60;54.90;;;;;;5223382;28;20044;-75
2021/10/22 00:32:52;;;;;;;2.03;0.93;;;21.50;55.00;;;;;;5223095;28;20044;-76
2021/10/22 00:35:24;;;;;;;1.92;0.50;;;21.50;54.80;;;;;;5225085;28;20483;-76
2021/10/22 00:37:58;;;;;;;1.35;0.60;;;21.50;55.10;;;;;;5215761;28;20532;-76
2021/10/22 00:40:30;;;;;;;;;;;21.50;54.80;;;;;;5195251;28;20048;-76
2021/10/22 00:43:04;;;;;;;2.78;0.77;;;21.40;54.60;;;;;;5219923;28;19931;-75
2021/10/22 00:45:36;;;;;;;1.98;0.70;;;21.40;55.20;;;;;;5222360;28;20053;-77
2021/10/22 00:48:09;;;;;;;6.68;0.75;;;21.40;54.60;;;;;;5198097;28;20504;-77
2021/10/22 00:50:41;;;;;;;2.38;0.70;;;21.40;54.10;;;;;;5220746;28;20041;-76
2021/10/22 00:53:14;;;;;;;1.85;0.70;;;21.40;54.40;;;;;;5222878;28;20040;-76
2021/10/22 00:55:47;;;;;;;3.60;0.77;;;21.40;54.30;;;;;;5224276;28;20053;-76
2021/10/22 00:58:21;;;;;;;3.63;0.60;;;21.40;54.60;;;;;;5200609;28;20037;-76
2021/10/22 01:00:54;;;;;;;2.13;0.60;;;21.40;55.10;;;;;;5222881;28;20048;-76
2021/10/22 01:03:26;;;;;;;1.20;0.60;;;21.40;54.70;;;;;;5201259;28;20051;-76
2021/10/22 01:06:00;;;;;;;2.53;0.52;;;21.40;55.20;;;;;;5222792;28;20052;-78
2021/10/22 01:08:32;;;;;;;;;;;21.40;55.80;;;;;;5215452;28;20063;-76
2021/10/22 01:11:05;;;;;;;2.63;0.60;;;21.30;55.10;;;;;;5219775;28;19924;-77
2021/10/22 01:13:38;;;;;;;2.28;0.70;;;21.40;55.80;;;;;;5216030;28;20072;-76
2021/10/22 01:16:10;;;;;;;3.35;0.85;;;21.30;55.70;;;;;;5218861;28;20082;-77
2021/10/22 01:18:46;;;;;;;1.35;0.65;;;21.30;55.50;;;;;;5196550;28;20052;-80
2021/10/22 01:21:19;;;;;;;1.77;0.68;;;21.30;55.80;;;;;;5219193;28;20048;-75
2021/10/22 01:23:51;;;;;;;1.48;0.88;;;21.30;56.10;;;;;;5221105;28;20040;-74
2021/10/22 01:26:25;;;;;;;2.20;0.60;;;21.30;56.10;;;;;;5217157;28;20044;-76
2021/10/22 01:28:59;;;;;;;3.03;0.77;;;21.30;56.10;;;;;;5219886;28;20055;-76
2021/10/22 01:31:31;;;;;;;2.33;0.70;;;21.40;56.30;;;;;;5208814;28;20052;-77
2021/10/22 01:34:04;;;;;;;2.13;0.70;;;21.30;56.40;;;;;;5206126;28;20041;-75
2021/10/22 01:36:36;;;;;;;2.53;0.80;;;21.40;56.40;;;;;;5219744;28;21104;-76
2021/10/22 01:39:09;;;;;;;2.88;0.70;;;21.40;56.40;;;;;;5222172;28;20060;-74
2021/10/22 01:41:41;;;;;;;1.92;0.70;;;21.40;56.50;;;;;;5214083;28;20505;-79
2021/10/22 01:44:22;;;;;;;3.92;1.00;;;21.30;56.60;;;;;;5219610;28;20057;-79
2021/10/22 01:46:55;;;;;;;1.95;0.60;;;21.30;56.60;;;;;;5223328;28;20060;-75
2021/10/22 01:49:27;;;;;;;2.37;0.70;;;21.40;56.60;;;;;;5216690;28;20417;-78
2021/10/22 01:52:00;;;;;;;1.65;0.60;;;21.30;56.30;;;;;;5219383;28;20701;-76
2021/10/22 01:54:32;;;;;;;3.83;0.70;;;21.30;56.60;;;;;;5226942;28;20052;-76
2021/10/22 01:57:06;;;;;;;4.57;0.75;;;21.30;56.60;;;;;;5224896;28;20044;-76
2021/10/22 01:59:39;;;;;;;2.38;0.50;;;21.30;56.50;;;;;;5209394;28;20053;-75
2021/10/22 02:02:11;;;;;;;2.90;0.73;;;21.30;56.70;;;;;;5215369;28;20044;-75
2021/10/22 02:04:45;;;;;;;;;;;21.40;56.70;;;;;;5227632;28;20041;-76
2021/10/22 02:07:17;;;;;;;2.50;0.70;;;21.20;56.50;;;;;;5220542;28;20304;-75
2021/10/22 02:09:49;;;;;;;2.58;0.63;;;21.30;56.90;;;;;;5220819;28;20048;-76
2021/10/22 02:12:22;;;;;;;1.35;0.60;;;21.30;56.80;;;;;;5223856;28;20049;-75
2021/10/22 02:14:55;;;;;;;1.15;0.60;;;21.30;56.80;;;;;;5222022;28;20049;-77
2021/10/22 02:17:27;;;;;;;3.60;1.00;;;21.30;56.80;;;;;;5222371;28;21527;-76
2021/10/22 02:20:00;;;;;;;1.38;0.60;;;21.30;56.90;;;;;;5225267;28;20952;-75
2021/10/22 02:22:32;;;;;;;1.20;0.60;;;21.30;56.90;;;;;;5218956;28;20051;-75
2021/10/22 02:25:05;;;;;;;2.05;0.70;;;21.30;56.80;;;;;;5224397;28;20049;-77
2021/10/22 02:27:37;;;;;;;3.40;0.60;;;21.30;56.90;;;;;;5223701;28;20053;-78
2021/10/22 02:30:23;;;;;;;3.38;0.50;;;21.30;56.90;;;;;;5231004;28;20055;-75
2021/10/22 02:32:55;;;;;;;1.27;0.40;;;21.30;57.00;;;;;;5227796;28;20048;-76
2021/10/22 02:35:28;;;;;;;1.60;0.60;;;21.30;57.10;;;;;;5225523;28;20044;-74
2021/10/22 02:38:01;;;;;;;2.35;0.60;;;21.30;57.10;;;;;;5221594;28;20055;-75
2021/10/22 02:40:33;;;;;;;2.45;0.70;;;21.30;57.10;;;;;;5225729;28;20040;-77
2021/10/22 02:43:06;;;;;;;1.75;0.73;;;21.20;57.10;;;;;;5204321;28;20055;-75
2021/10/22 02:45:39;;;;;;;1.33;0.63;;;21.20;57.10;;;;;;5226526;28;20056;-75
2021/10/22 02:48:11;;;;;;;1.95;0.70;;;21.20;57.10;;;;;;5221579;28;20253;-77
2021/10/22 02:50:43;;;;;;;2.25;0.60;;;21.20;57.10;;;;;;5224575;28;20060;-77
2021/10/22 02:53:16;;;;;;;1.08;0.57;;;21.20;57.20;;;;;;5205171;28;20579;-74
2021/10/22 02:55:48;;;;;;;1.17;0.70;;;21.20;57.30;;;;;;5218040;28;20059;-78
2021/10/22 02:58:20;;;;;;;1.20;0.50;;;21.20;57.30;;;;;;5223382;28;20052;-77
2021/10/22 03:00:53;;;;;;;4.07;0.70;;;21.20;57.40;;;;;;5221951;28;20638;-78
2021/10/22 03:03:26;;;;;;;3.17;0.98;;;21.20;56.90;;;;;;5211656;28;20402;-77
2021/10/22 03:05:58;;;;;;;3.88;0.73;;;21.20;56.70;;;;;;5217375;28;20048;-75
2021/10/22 03:08:30;;;;;;;3.90;0.80;;;21.20;56.80;;;;;;5208500;28;20055;-74
2021/10/22 03:11:04;;;;;;;4.95;0.80;;;21.20;56.80;;;;;;5217872;28;20057;-77
2021/10/22 03:13:37;;;;;;;5.22;0.90;;;21.20;56.80;;;;;;5224735;28;20403;-75
2021/10/22 03:16:09;;;;;;;2.35;0.73;;;21.20;56.90;;;;;;5224332;28;20048;-77
2021/10/22 03:18:42;;;;;;;4.43;0.95;;;21.20;57.00;;;;;;5220900;28;20079;-79
2021/10/22 03:21:15;;;;;;;2.97;0.90;;;21.20;57.10;;;;;;5226262;28;20051;-76
2021/10/22 03:23:48;;;;;;;6.75;0.80;;;21.20;57.10;;;;;;5226796;28;20052;-79
2021/10/22 03:26:21;;;;;;;5.50;0.98;;;21.20;57.10;;;;;;5228446;28;20056;-77
2021/10/22 03:28:53;;;;;;;2.20;0.60;;;21.20;57.20;;;;;;5225220;28;20037;-74
2021/10/22 03:31:27;;;;;;;4.70;1.45;;;21.10;57.20;;;;;;5202931;28;20044;-75
2021/10/22 03:34:02;;;;;;;6.30;1.05;;;21.20;57.30;;;;;;5229536;28;20059;-74
2021/10/22 03:36:36;;;;;;;2.15;0.90;;;21.20;57.40;;;;;;5209896;28;20398;-74
2021/10/22 03:39:09;;;;;;;3.10;1.13;;;21.20;57.40;;;;;;5229214;28;20259;-73
2021/10/22 03:41:41;;;;;;;7.72;0.80;;;21.20;57.50;;;;;;5231784;28;21152;-76
2021/10/22 03:44:13;;;;;;;6.35;1.35;;;21.20;57.50;;;;;;5230139;28;20036;-74
2021/10/22 03:46:46;;;;;;;8.48;1.05;;;21.20;57.50;;;;;;5232155;28;20044;-76
2021/10/22 03:49:18;;;;;;;6.13;0.70;;;21.20;57.60;;;;;;5229351;28;20515;-75
2021/10/22 03:51:51;;;;;;;5.57;0.80;;;21.20;57.50;;;;;;5228052;28;20051;-75
2021/10/22 03:54:23;;;;;;;3.23;1.10;;;21.20;57.60;;;;;;5227853;28;20055;-76
2021/10/22 03:56:56;;;;;;;4.07;1.05;;;21.10;57.60;;;;;;5228985;28;21142;-78
2021/10/22 03:59:29;;;;;;;3.28;1.10;;;21.10;57.70;;;;;;5228292;28;20049;-75
2021/10/22 04:02:02;;;;;;;4.10;0.80;;;21.20;57.70;;;;;;5228851;28;20052;-75
2021/10/22 04:04:35;;;;;;;5.03;0.80;;;21.20;57.80;;;;;;5211081;28;20400;-75
2021/10/22 04:07:07;;;;;;;6.57;0.70;;;21.10;57.70;;;;;;5227429;28;20194;-76
2021/10/22 04:09:40;;;;;;;4.03;0.98;;;21.10;57.70;;;;;;5210643;28;20080;-79
2021/10/22 04:12:12;;;;;;;3.17;1.02;;;21.10;57.70;;;;;;5228597;28;20071;-75
2021/10/22 04:14:45;;;;;;;1.95;0.98;;;21.20;58.00;;;;;;5220130;28;20043;-76
2021/10/22 04:17:17;;;;;;;2.95;0.90;;;21.10;58.00;;;;;;5205799;28;20045;-75
2021/10/22 04:19:50;;;;;;;5.13;1.13;;;21.20;57.90;;;;;;5222153;28;20041;-75
2021/10/22 04:22:23;;;;;;;4.43;1.15;;;21.20;58.00;;;;;;5226146;28;20060;-75
2021/10/22 04:24:55;;;;;;;4.35;1.00;;;21.20;58.00;;;;;;5218554;28;20040;-77
2021/10/22 04:27:32;;;;;;;4.90;1.55;;;21.20;58.00;;;;;;5202353;28;20615;-75
2021/10/22 04:30:07;;;;;;;3.60;0.63;;;21.20;58.00;;;;;;5221275;28;20487;-77
2021/10/22 04:32:42;;;;;;;3.47;0.68;;;21.20;58.00;;;;;;5183738;28;20056;-74
2021/10/22 04:35:14;;;;;;;4.10;1.00;;;21.20;57.90;;;;;;5217355;28;20048;-75
2021/10/22 04:40:43;;;;;;;3.70;1.00;;;21.30;57.80;;;;;;5166521;28;20044;-76
2021/10/22 04:43:16;;;;;;;4.07;0.90;;;21.40;57.80;;;;;;5217779;28;20142;-75
2021/10/22 04:45:50;;;;;;;1.80;0.85;;;21.40;57.80;;;;;;5211419;28;20052;-74
2021/10/22 04:48:23;;;;;;;0.73;0.60;;;21.40;57.70;;;;;;5220200;28;20040;-77
2021/10/22 04:50:55;;;;;;;1.77;0.73;;;21.50;57.70;;;;;;5214093;28;20048;-77
2021/10/22 04:53:28;;;;;;;1.90;0.80;;;21.50;57.60;;;;;;5216352;28;21339;-77
2021/10/22 04:56:00;;;;;;;3.85;1.25;;;21.50;57.50;;;;;;5216490;28;20409;-76
2021/10/22 04:58:33;;;;;;;1.65;0.75;;;21.50;57.40;;;;;;5203723;28;20049;-75
2021/10/22 05:01:05;;;;;;;7.97;1.17;;;21.60;57.40;;;;;;5207290;28;20036;-77
2021/10/22 05:03:38;;;;;;;7.28;1.10;;;21.60;57.30;;;;;;5207965;28;20677;-77
2021/10/22 05:06:10;;;;;;;5.72;1.20;;;21.60;57.20;;;;;;5208162;28;20067;-78
2021/10/22 05:08:43;;;;;;;11.95;1.58;;;21.60;57.20;;;;;;5194259;28;20051;-76
2021/10/22 05:11:15;;;;;;;7.95;1.25;;;21.60;57.40;;;;;;5202417;28;20046;-78
2021/10/22 05:13:50;;;;;;;12.20;1.33;;;21.70;57.60;;;;;;5175341;28;21688;-76
2021/10/22 05:16:23;;;;;;;8.07;1.00;;;21.70;57.70;;;;;;5202596;28;20442;-77
2021/10/22 05:18:56;;;;;;;14.98;1.38;;;21.70;57.80;;;;;;5209431;28;20052;-76
2021/10/22 05:21:28;;;;;;;5.90;1.00;;;21.70;57.80;;;;;;5217046;28;20289;-76
2021/10/22 05:24:00;;;;;;;10.55;1.10;;;21.70;57.90;;;;;;5219001;28;20063;-77
2021/10/22 05:26:32;;;;;;;15.10;0.85;;;21.80;57.90;;;;;;5211564;28;20055;-76
2021/10/22 05:29:05;;;;;;;6.63;0.93;;;21.80;57.90;;;;;;5217652;28;20060;-77
2021/10/22 05:31:37;;;;;;;5.03;1.15;;;21.80;58.00;;;;;;5216575;28;20091;-76
2021/10/22 05:34:10;;;;;;;10.18;1.10;;;21.80;58.00;;;;;;5213645;28;20055;-77
2021/10/22 05:36:42;;;;;;;4.93;1.25;;;21.90;58.10;;;;;;5210888;28;20596;-79
2021/10/22 05:39:16;;;;;;;8.85;1.10;;;21.90;58.10;;;;;;5212189;28;20531;-77
2021/10/22 05:41:49;;;;;;;;;;;21.90;58.10;;;;;;5225249;28;20072;-78
2021/10/22 05:44:23;;;;;;;11.10;0.90;;;21.90;58.20;;;;;;5224522;28;19931;-79
2021/10/22 05:46:57;;;;;;;3.97;0.90;;;21.90;58.10;;;;;;5224875;28;20041;-78
2021/10/22 05:49:29;;;;;;;6.20;1.38;;;21.90;58.20;;;;;;5215887;28;20401;-78
2021/10/22 05:52:02;;;;;;;5.93;1.02;;;22.00;58.20;;;;;;5222231;28;20606;-77
2021/10/22 05:54:35;;;;;;;5.37;0.73;;;22.00;58.20;;;;;;5221583;28;20052;-78
2021/10/22 05:57:07;;;;;;;3.13;0.80;;;22.00;58.20;;;;;;5224248;28;20044;-77
2021/10/22 05:59:40;;;;;;;5.30;0.73;;;22.00;58.20;;;;;;5208324;28;20492;-77
2021/10/22 06:02:19;;;;;;;5.72;0.90;;;22.00;58.20;;;;;;5225831;28;20052;-77
2021/10/22 06:04:51;;;;;;;4.68;0.88;;;22.00;58.20;;;;;;5227072;28;20347;-77
2021/10/22 06:07:24;;;;;;;6.13;1.10;;;22.00;58.20;;;;;;5227238;28;20056;-77
2021/10/22 06:09:56;;;;;;;7.72;0.90;;;22.10;58.20;;;;;;5210360;28;20051;-77
2021/10/22 06:12:28;;;;;;;2.50;1.02;;;22.10;58.20;;;;;;5217092;28;20051;-77
2021/10/22 06:15:01;;;;;;;5.15;0.75;;;22.10;58.20;;;;;;5206940;28;20518;-78
2021/10/22 06:17:33;;;;;;;2.90;1.20;;;22.10;58.20;;;;;;5225403;28;20071;-77
2021/10/22 06:20:12;;;;;;;4.78;0.80;;;22.10;58.20;;;;;;5226189;28;20387;-78
2021/10/22 06:25:35;;;;;;;2.80;0.90;;;22.10;58.20;;;;;;5203727;28;20045;-78
2021/10/22 06:28:10;;;;;;;3.45;0.70;;;22.10;58.10;;;;;;5191356;28;20055;-77
2021/10/22 06:30:43;;;;;;;4.22;0.80;;;22.10;58.10;;;;;;5224043;28;20048;-77
2021/10/22 06:33:15;;;;;;;3.75;0.73;;;22.20;58.20;;;;;;5219119;28;20044;-76
2021/10/22 06:35:48;;;;;;;3.17;0.80;;;22.10;58.10;;;;;;5201930;28;20053;-77
2021/10/22 06:38:21;;;;;;;1.92;0.60;;;22.20;58.20;;;;;;5224137;28;20055;-77
2021/10/22 06:40:54;;;;;;;0.98;0.50;;;22.20;58.20;;;;;;5223554;28;20044;-77
2021/10/22 06:43:26;;;;;;;2.13;0.50;;;22.20;58.20;;;;;;5205798;28;20040;-77
2021/10/22 06:45:58;;;;;;;2.65;0.70;;;22.20;58.20;;;;;;5225584;28;20056;-78
2021/10/22 06:48:31;;;;;;;1.33;0.52;;;22.20;58.10;;;;;;5224827;28;20083;-76
2021/10/22 06:51:05;;;;;;;;;;;22.20;58.10;;;;;;5224614;28;20051;-77
2021/10/22 06:53:37;;;;;;;3.75;0.80;;;22.20;58.10;;;;;;5224728;28;20299;-77
2021/10/22 06:56:10;;;;;;;2.07;0.70;;;22.20;58.20;;;;;;5224293;28;20919;-77
2021/10/22 06:58:42;;;;;;;1.30;0.50;;;22.20;58.10;;;;;;5227890;28;20063;-78
2021/10/22 07:01:15;;;;;;;2.00;0.57;;;22.20;58.10;;;;;;5203602;28;20048;-77
2021/10/22 07:03:47;;;;;;;3.33;0.70;;;22.30;58.20;;;;;;5228957;28;20420;-77
2021/10/22 07:08:58;;;;;;;0.90;0.70;;;22.20;58.20;;;;;;5225523;28;20577;-74
2021/10/22 07:11:30;;;;;;;3.33;0.77;;;22.20;58.10;;;;;;5222828;28;20041;-77
2021/10/22 07:14:06;;;;;;;4.55;1.45;;;22.30;58.10;;;;;;5227713;28;20048;-78
2021/10/22 07:16:39;;;;;;;4.10;0.73;;;22.30;58.20;;;;;;5217603;28;20382;-75
2021/10/22 07:19:11;;;;;;;36.03;1.83;;;22.30;58.20;;;;;;5220697;28;20044;-73
2021/10/22 07:21:49;;;;;;;5.80;0.95;;;22.40;59.00;;;;;;5223503;28;20298;-76
2021/10/22 07:24:23;;;;;;;11.35;1.25;;;22.40;59.00;;;;;;5211703;28;20049;-76
2021/10/22 07:26:55;;;;;;;4.22;0.70;;;22.40;59.00;;;;;;5218186;28;20465;-75
2021/10/22 07:29:28;;;;;;;3.47;0.85;;;22.40;58.90;;;;;;5207124;28;20291;-75
2021/10/22 07:32:00;;;;;;;10.48;1.63;;;22.40;59.00;;;;;;5218207;28;20713;-74
2021/10/22 07:34:33;;;;;;;7.18;1.10;;;22.50;59.80;;;;;;5226693;28;20382;-74
2021/10/22 07:37:05;;;;;;;3.42;0.70;;;22.50;59.90;;;;;;5221812;28;20219;-74
2021/10/22 07:39:37;;;;;;;5.85;1.55;;;22.50;59.90;;;;;;5226177;28;20067;-74
2021/10/22 07:42:11;;;;;;;;;;;22.50;60.00;;;;;;5208369;28;20496;-73
2021/10/22 07:44:59;;;;;;;5.32;1.25;;;22.50;60.10;;;;;;5224139;28;19951;-74
2021/10/22 07:47:33;;;;;;;5.88;1.10;;;22.50;59.90;;;;;;5225857;28;20059;-73
2021/10/22 07:50:08;;;;;;;3.25;0.88;;;22.50;59.90;;;;;;5206706;28;20047;-74
2021/10/22 07:52:41;;;;;;;6.07;0.90;;;22.50;59.80;;;;;;5191260;28;20040;-74
2021/10/22 07:55:14;;;;;;;2.97;0.98;;;22.50;59.70;;;;;;5225145;28;20040;-73
2021/10/22 07:57:47;;;;;;;2.20;0.85;;;22.50;59.70;;;;;;5205663;28;20052;-74
2021/10/22 08:00:19;;;;;;;3.47;0.82;;;22.50;59.80;;;;;;5222373;28;20066;-74
2021/10/22 08:02:52;;;;;;;3.80;0.90;;;22.50;59.60;;;;;;5224262;28;21364;-74
2021/10/22 08:05:24;;;;;;;5.40;0.90;;;22.50;59.60;;;;;;5223710;28;20710;-74
2021/10/22 08:07:57;;;;;;;7.53;0.77;;;22.50;59.50;;;;;;5221024;28;20044;-73
2021/10/22 08:10:29;;;;;;;3.42;0.70;;;22.50;59.50;;;;;;5207083;28;20048;-73
2021/10/22 08:13:04;;;;;;;4.50;0.90;;;22.50;59.50;;;;;;5223317;28;20044;-73
2021/10/22 08:15:42;;;;;;;4.97;0.70;;;22.50;59.50;;;;;;5226372;28;20083;-73
2021/10/22 08:18:16;;;;;;;1.80;0.70;;;22.50;59.40;;;;;;5221355;28;20048;-73
2021/10/22 08:20:53;;;;;;;4.03;0.95;;;22.50;59.50;;;;;;5227029;28;20063;-72
2021/10/22 08:23:25;;;;;;;3.17;0.75;;;22.50;59.50;;;;;;5226831;28;20774;-71
2021/10/22 08:25:58;;;;;;;3.67;1.43;;;22.50;59.50;;;;;;5225000;28;20037;-71
2021/10/22 08:28:33;;;;;;;7.07;0.95;;;22.50;59.40;;;;;;5226976;28;20040;-71
2021/10/22 08:31:06;;;;;;;4.00;0.93;;;22.50;59.40;;;;;;5223322;28;20635;-70
2021/10/22 08:33:40;;;;;;;2.35;0.68;;;22.50;59.40;;;;;;5223232;28;20052;-70
2021/10/22 08:36:13;;;;;;;1.73;0.75;;;22.60;59.50;;;;;;5224929;28;20657;-70
2021/10/22 08:38:45;;;;;;;12.18;1.15;;;22.50;59.40;;;;;;5226919;28;20064;-71
2021/10/22 08:41:21;;;;;;;4.40;1.00;;;22.50;59.50;;;;;;5224119;28;20041;-70
2021/10/22 08:43:55;;;;;;;3.13;0.90;;;22.50;59.60;;;;;;5224434;28;20404;-71
2021/10/22 08:46:28;;;;;;;2.40;0.77;;;22.50;59.70;;;;;;5221547;28;20680;-70
2021/10/22 08:49:02;;;;;;;5.72;1.08;;;22.60;59.70;;;;;;5227877;28;20050;-70
2021/10/22 08:51:34;;;;;;;3.00;0.70;;;22.50;59.50;;;;;;5223045;28;20044;-71
2021/10/22 08:54:09;;;;;;;5.03;1.15;;;22.50;59.50;;;;;;5222497;28;20040;-71
2021/10/22 08:56:42;;;;;;;4.78;1.15;;;22.50;59.40;;;;;;5221291;28;20063;-71
2021/10/22 08:59:15;;;;;;;3.08;0.90;;;22.50;59.40;;;;;;5216927;28;20048;-70
2021/10/22 09:02:11;;;;;;;3.20;1.08;;;22.50;59.40;;;;;;5221554;28;20040;-70
2021/10/22 09:04:46;;;;;;;2.75;0.80;;;22.60;59.30;;;;;;5225991;28;20044;-70
2021/10/22 09:07:20;;;;;;;2.95;1.10;;;22.50;59.30;;;;;;5223369;28;20059;-71
2021/10/22 09:10:15;;;;;;;3.10;0.80;;;22.60;59.30;;;;;;5212131;28;20036;-71
2021/10/22 09:12:59;;;;;;;2.38;0.75;;;22.60;59.20;;;;;;5223091;28;20511;-70
2021/10/22 09:15:34;;;;;;;;;;;22.50;59.30;;;;;;5227963;28;20044;-70
2021/10/22 09:18:18;;;;;;;3.95;0.90;;;22.50;59.30;;;;;;5226596;28;20399;-70
2021/10/22 09:20:50;;;;;;;2.80;0.98;;;22.50;59.30;;;;;;5224915;28;20044;-70
2021/10/22 09:23:34;;;;;;;2.63;0.90;;;22.50;59.30;;;;;;5223949;28;20056;-71
2021/10/22 09:26:28;;;;;;;2.72;1.02;;;22.50;59.20;;;;;;5225817;28;20592;-70
2021/10/22 09:29:17;;;;;;;3.03;0.93;;;22.50;59.20;;;;;;5211679;28;20621;-71
2021/10/22 09:31:51;;;;;;;2.38;1.02;;;22.50;59.20;;;;;;5226636;28;20040;-70
2021/10/22 09:34:37;;;;;;;2.03;1.00;;;22.60;59.20;;;;;;5225704;28;20056;-70
2021/10/22 09:37:12;;;;;;;2.13;0.95;;;22.60;59.20;;;;;;5219400;28;20040;-71
2021/10/22 09:39:44;;;;;;;1.40;0.90;;;22.60;59.20;;;;;;5224356;28;20067;-70
2021/10/22 09:42:18;;;;;;;2.15;0.75;;;22.60;59.20;;;;;;5228872;28;20408;-71
2021/10/22 09:44:50;;;;;;;1.67;0.80;;;22.60;59.10;;;;;;5226005;28;20971;-71
2021/10/22 09:47:23;;;;;;;1.90;0.88;;;22.60;59.10;;;;;;5223854;28;20040;-70
2021/10/22 09:50:07;;;;;;;3.78;1.05;;;22.60;59.10;;;;;;5225388;28;20044;-70
2021/10/22 09:52:40;;;;;;;2.22;0.75;;;22.60;59.00;;;;;;5224840;28;20055;-71
2021/10/22 09:55:19;;;;;;;3.83;0.90;;;22.60;59.10;;;;;;5225571;28;20044;-70
2021/10/22 09:58:06;;;;;;;1.90;0.55;;;22.60;59.00;;;;;;5223644;28;20040;-70
2021/10/22 10:00:39;;;;;;;2.05;0.73;;;22.60;59.00;;;;;;5225189;28;20052;-70
2021/10/22 10:03:11;;;;;;;1.42;0.73;;;22.60;59.10;;;;;;5228619;28;20052;-71
2021/10/22 10:05:44;;;;;;;4.70;0.98;;;22.60;59.00;;;;;;5229858;28;20386;-70
2021/10/22 10:08:17;;;;;;;2.90;1.05;;;22.60;59.00;;;;;;5227254;28;20040;-71
2021/10/22 10:10:49;;;;;;;3.60;0.93;;;22.60;59.00;;;;;;5197996;28;20059;-70
2021/10/22 10:13:22;;;;;;;2.70;1.00;;;22.70;59.10;;;;;;5224750;28;20053;-71
2021/10/22 10:15:54;;;;;;;2.53;0.80;;;22.60;59.00;;;;;;5230063;28;20052;-71
2021/10/22 10:18:46;;;;;;;2.55;0.80;;;22.70;59.10;;;;;;5230513;28;20063;-70
2021/10/22 10:21:21;;;;;;;2.47;0.75;;;22.60;59.00;;;;;;5210840;28;20520;-71
2021/10/22 10:23:55;;;;;;;2.00;0.90;;;22.60;59.00;;;;;;5232834;28;20036;-71
2021/10/22 10:26:29;;;;;;;2.95;1.02;;;22.60;59.00;;;;;;5231969;28;20052;-71
2021/10/22 10:29:03;;;;;;;;;;;22.60;59.00;;;;;;5231334;28;20049;-71
2021/10/22 10:31:37;;;;;;;;;;;22.60;59.00;;;;;;5228725;28;19924;-70
2021/10/22 10:34:27;;;;;;;2.75;0.80;;;22.60;59.00;;;;;;5231576;28;20447;-71
2021/10/22 10:37:02;;;;;;;2.08;0.70;;;22.60;59.00;;;;;;5217359;28;20041;-71
2021/10/22 10:39:44;;;;;;;3.13;1.00;;;22.60;59.60;;;;;;5231307;28;20056;-71
2021/10/22 10:42:32;;;;;;;1.25;1.00;;;22.60;59.00;;;;;;5227435;28;20056;-71
2021/10/22 10:45:26;;;;;;;1.38;0.70;;;22.60;59.00;;;;;;5227171;28;20044;-71
2021/10/22 10:48:08;;;;;;;1.92;0.85;;;22.60;59.00;;;;;;5231706;28;20044;-71
2021/10/22 10:51:07;;;;;;;1.73;0.77;;;22.60;59.00;;;;;;5233458;28;20055;-70
2021/10/22 10:53:44;;;;;;;1.63;0.73;;;22.60;59.00;;;;;;5230914;28;20056;-70
2021/10/22 10:56:32;;;;;;;1.55;1.05;;;22.70;59.10;;;;;;5230701;28;20405;-70
2021/10/22 10:59:04;;;;;;;4.43;0.93;;;22.60;59.00;;;;;;5226313;28;20059;-70
2021/10/22 11:01:39;;;;;;;1.58;1.02;;;22.60;59.00;;;;;;5228595;28;20452;-70
2021/10/22 11:04:11;;;;;;;2.33;0.82;;;22.60;58.90;;;;;;5231716;28;20043;-71
2021/10/22 11:06:45;;;;;;;1.80;0.73;;;22.70;59.00;;;;;;5228801;28;20063;-71
2021/10/22 11:09:37;;;;;;;3.22;0.70;;;22.70;59.00;;;;;;5221978;28;20037;-70
2021/10/22 11:12:10;;;;;;;2.05;0.63;;;22.70;58.90;;;;;;5230356;28;20501;-70
2021/10/22 11:14:48;;;;;;;2.80;0.70;;;22.70;59.00;;;;;;5226680;28;20041;-70
2021/10/22 11:17:28;;;;;;;2.15;0.90;;;22.70;59.00;;;;;;5226127;28;20052;-70
2021/10/22 11:20:00;;;;;;;3.28;1.00;;;22.70;58.90;;;;;;5228360;28;20056;-70
2021/10/22 11:22:33;;;;;;;2.20;0.90;;;22.70;58.90;;;;;;5224891;28;20052;-71
2021/10/22 11:25:08;;;;;;;2.75;0.75;;;22.70;58.90;;;;;;5229830;28;20053;-70
2021/10/22 11:27:40;;;;;;;1.33;0.90;;;22.70;58.90;;;;;;5222849;28;20056;-70
2021/10/22 11:30:13;;;;;;;2.30;0.90;;;22.70;58.90;;;;;;5223937;28;20052;-70
2021/10/22 11:32:46;;;;;;;1.58;0.90;;;22.70;58.90;;;;;;5229926;28;20045;-70
2021/10/22 11:35:29;;;;;;;1.65;0.88;;;22.70;58.90;;;;;;5230815;28;20040;-71
2021/10/22 11:38:05;;;;;;;1.33;0.80;;;22.70;58.90;;;;;;5224848;28;20523;-70
2021/10/22 11:40:38;;;;;;;2.13;0.75;;;22.70;58.80;;;;;;5226916;28;20056;-71
2021/10/22 11:43:11;;;;;;;2.85;0.77;;;22.70;58.70;;;;;;5216264;28;20059;-71
2021/10/22 11:45:44;;;;;;;0.93;0.57;;;22.70;58.70;;;;;;5215745;28;20044;-71
2021/10/22 11:48:32;;;;;;;1.42;0.60;;;22.70;58.70;;;;;;5222614;28;20071;-70
2021/10/22 11:51:11;;;;;;;2.25;0.80;;;22.80;58.60;;;;;;5215314;28;20044;-71
2021/10/22 11:53:45;;;;;;;2.78;0.98;;;22.80;58.60;;;;;;5219045;28;20698;-72
2021/10/22 11:56:17;;;;;;;1.23;0.70;;;22.80;58.60;;;;;;5222405;28;20059;-71
2021/10/22 11:58:50;;;;;;;3.72;0.80;;;22.80;58.60;;;;;;5222432;28;20127;-71
2021/10/22 12:01:23;;;;;;;2.83;0.80;;;22.80;58.60;;;;;;5224430;28;20058;-71
2021/10/22 12:03:56;;;;;;;3.03;0.77;;;22.80;58.60;;;;;;5221559;28;20052;-71
2021/10/22 12:06:28;;;;;;;4.32;1.10;;;22.80;58.70;;;;;;5220941;28;20044;-71
2021/10/22 12:09:01;;;;;;;1.17;0.90;;;22.80;58.70;;;;;;5208972;28;20052;-71
2021/10/22 12:11:34;;;;;;;;;;;22.80;58.70;;;;;;5193278;28;21143;-71
2021/10/22 12:14:14;;;;;;;3.10;0.68;;;22.70;58.60;;;;;;5205938;28;20407;-71
2021/10/22 12:16:47;;;;;;;2.95;0.73;;;22.80;58.70;;;;;;5210279;28;21541;-71
2021/10/22 12:19:20;;;;;;;1.55;0.70;;;22.80;58.70;;;;;;5217544;28;20048;-71
2021/10/22 12:21:53;;;;;;;6.40;1.25;;;22.80;58.60;;;;;;5217870;28;20048;-71
2021/10/22 12:24:37;;;;;;;3.50;0.70;;;22.80;58.60;;;;;;5216720;28;20380;-71
2021/10/22 12:27:10;;;;;;;2.50;0.80;;;22.80;58.50;;;;;;5218151;28;20052;-72
2021/10/22 12:29:59;;;;;;;2.05;0.98;;;22.90;58.50;;;;;;5216930;28;20044;-71
2021/10/22 12:32:35;;;;;;;2.00;1.00;;;22.90;58.50;;;;;;5198835;28;20040;-71
2021/10/22 12:35:23;;;;;;;4.55;0.85;;;23.00;58.50;;;;;;5222586;28;20054;-71
2021/10/22 12:38:06;;;;;;;2.83;0.95;;;23.00;58.50;;;;;;5218220;28;20059;-71
2021/10/22 12:40:51;;;;;;;2.80;1.10;;;23.00;58.40;;;;;;5219629;28;20067;-71
2021/10/22 12:43:27;;;;;;;5.03;1.00;;;23.00;58.40;;;;;;5209128;28;20044;-71
2021/10/22 12:46:13;;;;;;;3.08;0.80;;;23.00;58.50;;;;;;5201422;28;20051;-70
2021/10/22 12:48:47;;;;;;;7.85;1.00;;;23.00;58.40;;;;;;5211192;28;20032;-69
2021/10/22 12:51:25;;;;;;;5.78;1.15;;;23.00;58.50;;;;;;5210518;28;20174;-69
2021/10/22 12:54:04;;;;;;;8.45;1.30;;;23.10;58.60;;;;;;5218715;28;20056;-70
2021/10/22 12:56:37;;;;;;;6.43;0.88;;;23.10;58.60;;;;;;5216398;28;20052;-70
2021/10/22 12:59:10;;;;;;;8.48;1.23;;;23.10;58.70;;;;;;5212916;28;20064;-70
2021/10/22 13:01:43;;;;;;;5.53;1.02;;;23.00;58.80;;;;;;5213916;28;20048;-70
2021/10/22 13:04:22;;;;;;;5.90;1.33;;;23.10;58.90;;;;;;5215357;28;20041;-69
2021/10/22 13:23:02;;;;;;;3.25;0.90;;;23.00;59.00;;;;;;5200008;28;20052;-70
2021/10/22 13:25:34;;;;;;;3.90;0.95;;;22.90;59.00;;;;;;5202916;28;20448;-70
2021/10/22 13:28:08;;;;;;;6.05;1.30;;;22.90;59.10;;;;;;5220450;28;20052;-70
2021/10/22 13:30:42;;;;;;;8.35;1.30;;;22.90;59.20;;;;;;5211409;28;20045;-72
2021/10/22 13:33:15;;;;;;;;;;;22.90;59.30;;;;;;5178474;28;20040;-70
2021/10/22 13:35:48;;;;;;;5.88;1.10;;;22.90;60.00;;;;;;5196524;28;20886;-70
2021/10/22 13:38:20;;;;;;;5.40;1.02;;;22.90;59.30;;;;;;5212070;28;20049;-71
2021/10/22 13:40:58;;;;;;;4.28;0.88;;;22.90;59.40;;;;;;5220295;28;20045;-70
2021/10/22 13:43:33;;;;;;;2.03;0.80;;;22.90;59.50;;;;;;5201583;28;20047;-69
2021/10/22 13:46:12;;;;;;;4.47;1.00;;;22.90;59.60;;;;;;5176180;28;20044;-69
2021/10/22 13:48:45;;;;;;;3.90;1.23;;;23.00;59.50;;;;;;5178336;28;20879;-69
2021/10/22 13:51:17;;;;;;;3.95;0.90;;;22.90;59.40;;;;;;5215291;28;20554;-68
2021/10/22 13:53:50;;;;;;;4.35;0.98;;;22.90;59.40;;;;;;5217136;28;20048;-68